createdAt,value
2018-03-23T00:00:22.314Z,10.73
2018-03-23T00:02:50.659Z,11.30
2018-03-23T00:05:19.162Z,12.13
2018-03-23T00:07:48.111Z,12.37
2018-03-23T00:10:16.738Z,11.25
2018-03-23T00:12:45.355Z,9.88
2018-03-23T00:15:14.244Z,11.12
2018-03-23T00:17:42.900Z,10.88
2018-03-23T00:20:11.381Z,10.30
2018-03-23T00:22:39.923Z,11.60
2018-03-23T00:25:08.627Z,9.25
2018-03-23T00:27:37.123Z,11.55
2018-03-23T00:30:05.675Z,11.75
2018-03-23T00:32:34.322Z,10.63
2018-03-23T00:35:03.018Z,11.23
2018-03-23T00:37:31.556Z,11.40
2018-03-23T00:40:00.435Z,10.30
2018-03-23T00:42:28.815Z,10.90
2018-03-23T00:44:58.011Z,11.38
2018-03-23T00:47:28.045Z,12.07
2018-03-23T00:49:57.118Z,11.35
2018-03-23T00:52:26.736Z,11.38
2018-03-23T00:54:55.389Z,11.27
2018-03-23T00:57:23.842Z,10.95
2018-03-23T00:59:52.387Z,11.60
2018-03-23T01:02:20.796Z,10.68
2018-03-23T01:04:49.135Z,9.98
2018-03-23T01:07:17.619Z,11.93
2018-03-23T01:09:45.750Z,10.27
2018-03-23T01:12:13.822Z,11.75
2018-03-23T01:14:42.100Z,10.60
2018-03-23T01:17:10.301Z,9.75
2018-03-23T01:19:38.557Z,10.80
2018-03-23T01:22:07.005Z,10.27
2018-03-23T01:24:35.360Z,10.93
2018-03-23T01:27:03.557Z,9.43
2018-03-23T01:29:31.867Z,10.32
2018-03-23T01:32:00.042Z,9.88
2018-03-23T01:34:28.359Z,11.52
2018-03-23T01:36:56.641Z,9.77
2018-03-23T01:39:25.040Z,11.82
2018-03-23T01:41:53.339Z,10.73
2018-03-23T01:44:21.842Z,10.43
2018-03-23T01:46:50.042Z,11.38
2018-03-23T01:49:18.335Z,10.85
2018-03-23T01:51:46.446Z,10.50
2018-03-23T01:54:14.717Z,9.77
2018-03-23T01:56:42.815Z,10.48
2018-03-23T01:59:10.995Z,11.07
2018-03-23T02:01:39.215Z,11.43
2018-03-23T02:04:07.495Z,10.98
2018-03-23T02:06:35.684Z,11.20
2018-03-23T02:09:03.777Z,11.68
2018-03-23T02:11:31.762Z,11.80
2018-03-23T02:13:59.981Z,9.65
2018-03-23T02:16:28.375Z,10.32
2018-03-23T02:18:56.660Z,10.20
2018-03-23T02:21:24.902Z,10.85
2018-03-23T02:23:53.162Z,10.05
2018-03-23T02:26:21.477Z,10.00
2018-03-23T02:28:49.646Z,9.68
2018-03-23T02:31:17.976Z,10.80
2018-03-23T02:33:46.285Z,9.88
2018-03-23T02:36:14.322Z,9.95
2018-03-23T02:38:42.601Z,10.60
2018-03-23T02:41:10.716Z,9.05
2018-03-23T02:43:39.022Z,11.05
2018-03-23T02:46:07.212Z,9.68
2018-03-23T02:48:35.458Z,10.65
2018-03-23T02:51:03.695Z,8.90
2018-03-23T02:53:32.103Z,9.70
2018-03-23T02:56:00.338Z,9.20
2018-03-23T02:58:28.897Z,8.65
2018-03-23T03:00:57.744Z,10.10
2018-03-23T03:03:26.087Z,9.80
2018-03-23T03:05:54.697Z,10.70
2018-03-23T03:08:23.080Z,8.88
2018-03-23T03:10:51.413Z,10.02
2018-03-23T03:13:19.624Z,8.25
2018-03-23T03:15:49.024Z,8.80
2018-03-23T03:18:17.302Z,8.73
2018-03-23T03:20:45.726Z,8.00
2018-03-23T03:23:14.018Z,10.27
2018-03-23T03:25:42.442Z,10.25
2018-03-23T03:28:11.108Z,10.20
2018-03-23T03:30:39.605Z,9.52
2018-03-23T03:33:07.927Z,9.48
2018-03-23T03:35:36.315Z,9.35
2018-03-23T03:38:04.636Z,10.30
2018-03-23T03:40:33.316Z,9.63
2018-03-23T03:43:01.697Z,8.82
2018-03-23T03:45:30.379Z,9.70
2018-03-23T03:48:00.037Z,9.43
2018-03-23T03:50:28.432Z,10.15
2018-03-23T03:52:56.882Z,9.27
2018-03-23T03:55:26.695Z,9.57
2018-03-23T03:57:56.389Z,9.43
2018-03-23T04:00:24.901Z,9.80
2018-03-23T04:02:53.598Z,8.75
2018-03-23T04:05:21.995Z,9.38
2018-03-23T04:07:51.479Z,9.73
2018-03-23T04:10:20.546Z,9.25
2018-03-23T04:12:48.953Z,9.15
2018-03-23T04:15:17.236Z,10.25
2018-03-23T04:17:45.540Z,9.10
2018-03-23T04:20:14.289Z,9.10
2018-03-23T04:22:49.318Z,9.23
2018-03-23T04:25:18.100Z,8.55
2018-03-23T04:27:46.277Z,9.80
2018-03-23T04:30:14.579Z,9.52
2018-03-23T04:32:42.810Z,11.25
2018-03-23T04:35:11.356Z,9.68
2018-03-23T04:37:39.921Z,10.27
2018-03-23T04:40:09.500Z,11.85
2018-03-23T04:42:38.576Z,8.80
2018-03-23T04:45:07.100Z,10.32
2018-03-23T04:47:35.578Z,10.07
2018-03-23T04:50:03.821Z,9.90
2018-03-23T04:52:32.268Z,10.63
2018-03-23T04:55:01.080Z,9.13
2018-03-23T04:57:29.599Z,9.18
2018-03-23T04:59:58.204Z,9.73
2018-03-23T05:02:26.626Z,10.23
2018-03-23T05:04:55.035Z,8.68
2018-03-23T05:07:23.558Z,9.45
2018-03-23T05:09:53.058Z,9.13
2018-03-23T05:12:21.707Z,10.10
2018-03-23T05:14:50.950Z,9.05
2018-03-23T05:17:18.958Z,9.90
2018-03-23T05:19:47.316Z,10.45
2018-03-23T05:22:15.882Z,8.55
2018-03-23T05:24:44.167Z,9.80
2018-03-23T05:27:12.605Z,9.20
2018-03-23T05:29:40.982Z,9.27
2018-03-23T05:32:09.248Z,10.15
2018-03-23T05:34:37.961Z,10.88
2018-03-23T05:37:06.216Z,8.98
2018-03-23T05:39:36.037Z,10.25
2018-03-23T05:42:04.492Z,9.60
2018-03-23T05:44:32.712Z,9.32
2018-03-23T05:47:00.978Z,9.88
2018-03-23T05:49:29.240Z,10.85
2018-03-23T05:51:57.437Z,10.30
2018-03-23T05:54:25.776Z,9.85
2018-03-23T05:56:54.004Z,11.70
2018-03-23T05:59:22.163Z,10.02
2018-03-23T06:01:50.500Z,10.38
2018-03-23T06:04:18.584Z,10.65
2018-03-23T06:06:46.776Z,12.13
2018-03-23T06:09:14.945Z,10.32
2018-03-23T06:11:43.140Z,11.38
2018-03-23T06:14:11.339Z,11.07
2018-03-23T06:16:39.534Z,11.10
2018-03-23T06:19:07.720Z,10.23
2018-03-23T06:21:36.030Z,10.77
2018-03-23T06:24:04.249Z,11.25
2018-03-23T06:26:32.361Z,10.73
2018-03-23T06:29:00.607Z,10.93
2018-03-23T06:31:28.798Z,12.07
2018-03-23T06:33:57.654Z,11.90
2018-03-23T06:36:25.906Z,10.88
2018-03-23T06:38:54.089Z,11.40
2018-03-23T06:41:22.306Z,10.45
2018-03-23T06:43:50.480Z,10.30
2018-03-23T06:46:18.678Z,11.60
2018-03-23T06:48:46.821Z,10.68
2018-03-23T06:51:15.177Z,11.48
2018-03-23T06:53:43.272Z,10.75
2018-03-23T06:56:11.455Z,11.60
2018-03-23T06:58:39.659Z,11.48
2018-03-23T07:01:07.851Z,10.90
2018-03-23T07:03:36.144Z,10.63
2018-03-23T07:06:04.360Z,13.00
2018-03-23T07:08:32.435Z,10.80
2018-03-23T07:11:00.750Z,11.50
2018-03-23T07:13:29.027Z,11.95
2018-03-23T07:15:57.327Z,12.07
2018-03-23T07:18:25.514Z,12.07
2018-03-23T07:20:53.703Z,13.10
2018-03-23T07:23:21.907Z,11.30
2018-03-23T07:25:50.099Z,10.45
2018-03-23T07:28:18.286Z,10.88
2018-03-23T07:30:46.499Z,11.80
2018-03-23T07:33:14.676Z,12.07
2018-03-23T07:35:42.881Z,11.07
2018-03-23T07:38:10.963Z,12.05
2018-03-23T07:40:39.406Z,10.73
2018-03-23T07:43:07.655Z,10.57
2018-03-23T07:45:35.955Z,9.90
2018-03-23T07:48:04.177Z,11.45
2018-03-23T07:50:32.383Z,13.05
2018-03-23T07:53:00.842Z,12.37
2018-03-23T07:55:30.256Z,12.68
2018-03-23T07:57:59.577Z,11.98
2018-03-23T08:00:27.691Z,12.85
2018-03-23T08:02:55.991Z,12.73
2018-03-23T08:05:24.072Z,15.52
2018-03-23T08:07:52.275Z,17.40
2018-03-23T08:10:20.357Z,15.40
2018-03-23T08:12:48.560Z,15.93
2018-03-23T08:15:16.643Z,16.15
2018-03-23T08:17:44.837Z,19.90
2018-03-23T08:20:13.022Z,18.67
2018-03-23T08:22:41.216Z,16.10
2018-03-23T08:25:09.526Z,29.17
2018-03-23T08:27:37.818Z,20.17
2018-03-23T08:30:05.896Z,32.67
2018-03-23T08:32:33.977Z,19.97
2018-03-23T08:35:01.938Z,20.20
2018-03-23T08:37:30.077Z,18.77
2018-03-23T08:39:58.077Z,19.10
2018-03-23T08:42:26.280Z,27.67
2018-03-23T08:44:54.273Z,22.27
2018-03-23T08:47:22.284Z,20.77
2018-03-23T08:49:50.298Z,18.40
2018-03-23T08:52:18.537Z,21.03
2018-03-23T08:54:46.825Z,20.70
2018-03-23T08:57:15.017Z,22.30
2018-03-23T08:59:43.126Z,22.00
2018-03-23T09:02:11.415Z,20.67
2018-03-23T09:04:39.618Z,21.43
2018-03-23T09:07:07.896Z,19.05
2018-03-23T09:09:36.214Z,21.17
2018-03-23T09:12:04.350Z,22.20
2018-03-23T09:14:32.375Z,19.90
2018-03-23T09:17:00.686Z,19.17
2018-03-23T09:19:28.884Z,19.75
2018-03-23T09:21:57.073Z,23.48
2018-03-23T09:24:25.163Z,34.05
2018-03-23T09:26:53.347Z,25.80
2018-03-23T09:29:21.555Z,21.73
2018-03-23T09:31:49.755Z,22.00
2018-03-23T09:34:17.935Z,21.10
2018-03-23T09:36:46.125Z,19.43
2018-03-23T09:39:14.221Z,19.60
2018-03-23T09:41:42.523Z,19.23
2018-03-23T09:44:10.863Z,18.30
2018-03-23T09:46:39.219Z,18.10
2018-03-23T09:49:07.523Z,17.37
2018-03-23T09:51:35.804Z,17.27
2018-03-23T09:54:03.999Z,17.37
2018-03-23T09:56:32.140Z,16.20
2018-03-23T09:59:00.386Z,15.93
2018-03-23T10:01:28.587Z,17.50
2018-03-23T10:03:56.856Z,16.35
2018-03-23T10:06:25.074Z,15.40
2018-03-23T10:08:53.175Z,15.15
2018-03-23T10:11:21.262Z,15.43
2018-03-23T10:13:49.459Z,14.18
2018-03-23T10:16:17.563Z,14.57
2018-03-23T10:18:45.747Z,14.48
2018-03-23T10:21:13.838Z,14.80
2018-03-23T10:23:42.036Z,13.43
2018-03-23T10:26:10.337Z,13.90
2018-03-23T10:28:38.690Z,13.18
2018-03-23T10:31:07.123Z,12.75
2018-03-23T10:33:35.428Z,13.57
2018-03-23T10:36:03.731Z,12.70
2018-03-23T10:38:31.808Z,11.60
2018-03-23T10:40:59.902Z,12.13
2018-03-23T10:43:28.097Z,11.20
2018-03-23T10:45:56.504Z,11.40
2018-03-23T10:48:24.698Z,11.18
2018-03-23T10:50:52.775Z,11.93
2018-03-23T10:53:20.977Z,11.95
2018-03-23T10:55:49.175Z,10.90
2018-03-23T10:58:17.385Z,10.85
2018-03-23T11:00:45.466Z,11.05
2018-03-23T11:03:13.753Z,10.05
2018-03-23T11:05:41.959Z,8.75
2018-03-23T11:08:10.243Z,8.75
2018-03-23T11:10:38.547Z,9.13
2018-03-23T11:13:06.844Z,9.02
2018-03-23T11:15:35.140Z,7.25
2018-03-23T11:18:03.336Z,6.53
2018-03-23T11:20:31.374Z,6.70
2018-03-23T11:22:59.527Z,7.15
2018-03-23T11:25:27.707Z,6.20
2018-03-23T11:27:55.891Z,7.07
2018-03-23T11:30:23.987Z,9.07
2018-03-23T11:32:52.202Z,9.40
2018-03-23T11:35:20.376Z,9.95
2018-03-23T11:37:48.580Z,9.38
2018-03-23T11:40:16.767Z,8.05
2018-03-23T11:42:45.060Z,7.97
2018-03-23T11:45:13.268Z,8.32
2018-03-23T11:47:41.569Z,8.55
2018-03-23T11:50:09.960Z,8.55
2018-03-23T11:52:38.259Z,8.45
2018-03-23T11:55:06.555Z,8.20
2018-03-23T11:57:34.963Z,7.85
2018-03-23T12:00:03.144Z,9.00
2018-03-23T12:02:31.273Z,8.18
2018-03-23T12:04:59.248Z,7.80
2018-03-23T12:07:27.430Z,6.75
2018-03-23T12:09:55.816Z,5.95
2018-03-23T12:12:24.015Z,6.70
2018-03-23T12:14:52.105Z,7.10
2018-03-23T12:17:20.817Z,6.60
2018-03-23T12:19:49.105Z,7.22
2018-03-23T12:22:17.294Z,7.47
2018-03-23T12:24:45.403Z,8.05
2018-03-23T12:27:13.595Z,7.07
2018-03-23T12:29:41.789Z,7.28
2018-03-23T12:32:09.884Z,6.60
2018-03-23T12:34:38.177Z,6.75
2018-03-23T12:37:06.262Z,7.35
2018-03-23T12:39:34.458Z,8.18
2018-03-23T12:42:02.567Z,8.05
2018-03-23T12:44:30.753Z,6.78
2018-03-23T12:46:58.871Z,6.72
2018-03-23T12:49:27.233Z,7.12
2018-03-23T12:51:55.428Z,7.32
2018-03-23T12:54:23.626Z,7.60
2018-03-23T12:56:51.821Z,6.93
2018-03-23T12:59:20.019Z,6.60
2018-03-23T13:01:48.318Z,6.80
2018-03-23T13:04:16.508Z,6.75
2018-03-23T13:06:44.795Z,7.43
2018-03-23T13:09:13.100Z,6.00
2018-03-23T13:11:41.294Z,6.75
2018-03-23T13:14:09.599Z,7.18
2018-03-23T13:16:37.980Z,6.30
2018-03-23T13:19:06.192Z,5.75
2018-03-23T13:21:34.278Z,6.80
2018-03-23T13:24:02.478Z,7.07
2018-03-23T13:26:30.758Z,6.32
2018-03-23T13:28:58.868Z,5.82
2018-03-23T13:31:26.958Z,6.55
2018-03-23T13:33:55.158Z,6.32
2018-03-23T13:36:23.238Z,6.35
2018-03-23T13:38:51.424Z,6.03
2018-03-23T13:41:19.517Z,6.20
2018-03-23T13:43:47.841Z,5.53
2018-03-23T13:46:15.815Z,5.87
2018-03-23T13:48:43.851Z,6.45
2018-03-23T13:51:11.899Z,6.15
2018-03-23T13:53:39.988Z,5.93
2018-03-23T13:56:08.184Z,6.68
2018-03-23T13:58:36.236Z,5.55
2018-03-23T14:01:04.222Z,5.45
2018-03-23T14:03:32.309Z,5.47
2018-03-23T14:06:00.310Z,5.62
2018-03-23T14:08:28.366Z,4.78
2018-03-23T14:10:56.371Z,5.40
2018-03-23T14:13:24.388Z,5.35
2018-03-23T14:15:52.336Z,5.30
2018-03-23T14:18:20.334Z,5.10
2018-03-23T14:20:48.380Z,5.95
2018-03-23T14:23:16.541Z,4.80
2018-03-23T14:25:44.481Z,4.97
2018-03-23T14:28:12.720Z,5.40
2018-03-23T14:30:40.780Z,4.30
2018-03-23T14:33:08.979Z,5.15
2018-03-23T14:35:36.988Z,5.00
2018-03-23T14:38:04.966Z,5.55
2018-03-23T14:40:33.234Z,5.20
2018-03-23T14:43:01.522Z,4.62
2018-03-23T14:45:29.606Z,5.07
2018-03-23T14:47:57.806Z,4.45
2018-03-23T14:50:25.994Z,4.50
2018-03-23T14:52:54.096Z,4.20
2018-03-23T14:55:22.295Z,4.60
2018-03-23T14:57:50.684Z,5.03
2018-03-23T15:00:18.884Z,4.10
2018-03-23T15:02:47.082Z,5.47
2018-03-23T15:05:15.375Z,3.78
2018-03-23T15:07:43.554Z,3.92
2018-03-23T15:10:11.760Z,3.30
2018-03-23T15:12:39.859Z,3.78
2018-03-23T15:15:08.039Z,4.87
2018-03-23T15:17:36.237Z,3.83
2018-03-23T15:20:04.346Z,3.80
2018-03-23T15:22:32.536Z,5.05
2018-03-23T15:25:00.625Z,4.78
2018-03-23T15:27:29.543Z,6.60
2018-03-23T15:29:57.728Z,5.37
2018-03-23T15:32:25.820Z,5.00
2018-03-23T15:34:54.017Z,5.32
2018-03-23T15:37:22.316Z,4.55
2018-03-23T15:39:50.599Z,4.85
2018-03-23T15:42:18.890Z,4.80
2018-03-23T15:44:47.049Z,4.80
2018-03-23T15:47:15.395Z,4.72
2018-03-23T15:49:43.708Z,4.25
2018-03-23T15:52:11.877Z,4.47
2018-03-23T15:54:40.073Z,4.95
2018-03-23T15:57:08.278Z,5.60
2018-03-23T15:59:36.276Z,4.78
2018-03-23T16:02:04.313Z,3.83
2018-03-23T16:04:32.364Z,3.92
2018-03-23T16:07:00.341Z,5.05
2018-03-23T16:09:28.363Z,4.30
2018-03-23T16:11:56.357Z,4.72
2018-03-23T16:14:24.507Z,5.43
2018-03-23T16:16:52.602Z,5.53
2018-03-23T16:19:20.789Z,5.65
2018-03-23T16:21:49.090Z,5.75
2018-03-23T16:24:17.394Z,7.18
2018-03-23T16:26:45.578Z,4.70
2018-03-23T16:29:13.554Z,4.35
2018-03-23T16:31:41.768Z,4.87
2018-03-23T16:34:09.861Z,3.80
2018-03-23T16:36:37.950Z,3.65
2018-03-23T16:39:06.139Z,5.12
2018-03-23T16:41:34.351Z,4.12
2018-03-23T16:44:02.434Z,3.97
2018-03-23T16:46:30.614Z,4.00
2018-03-23T16:48:58.714Z,4.45
2018-03-23T16:51:26.904Z,4.57
2018-03-23T16:53:55.206Z,5.05
2018-03-23T16:56:23.514Z,4.20
2018-03-23T16:58:52.125Z,4.05
2018-03-23T17:01:20.515Z,4.05
2018-03-23T17:03:48.692Z,3.90
2018-03-23T17:06:16.995Z,4.12
2018-03-23T17:08:45.204Z,4.03
2018-03-23T17:11:13.239Z,5.30
2018-03-23T17:13:41.374Z,5.80
2018-03-23T17:16:09.574Z,3.95
2018-03-23T17:18:37.762Z,4.12
2018-03-23T17:21:05.854Z,2.05
2018-03-23T17:23:34.052Z,2.90
2018-03-23T17:26:02.247Z,2.20
2018-03-23T17:28:30.438Z,2.15
2018-03-23T17:30:58.529Z,3.83
2018-03-23T17:33:26.736Z,3.10
2018-03-23T17:35:54.912Z,2.83
2018-03-23T17:38:23.214Z,3.35
2018-03-23T17:40:51.520Z,2.45
2018-03-23T17:43:19.920Z,3.03
2018-03-23T17:45:48.099Z,2.85
2018-03-23T17:48:16.307Z,3.67
2018-03-23T17:50:44.506Z,3.87
2018-03-23T17:53:12.803Z,3.60
2018-03-23T17:55:40.979Z,2.10
2018-03-23T17:58:09.179Z,2.85
2018-03-23T18:00:37.378Z,2.50
2018-03-23T18:03:05.580Z,2.30
2018-03-23T18:05:33.760Z,2.58
2018-03-23T18:08:01.860Z,2.03
2018-03-23T18:10:29.954Z,2.00
2018-03-23T18:12:58.140Z,2.05
2018-03-23T18:15:26.353Z,1.52
2018-03-23T18:17:54.776Z,1.73
2018-03-23T18:20:23.028Z,1.60
2018-03-23T18:22:51.230Z,2.15
2018-03-23T18:25:19.526Z,1.48
2018-03-23T18:27:47.815Z,1.80
2018-03-23T18:30:16.012Z,1.85
2018-03-23T18:32:44.306Z,2.00
2018-03-23T18:35:12.398Z,2.40
2018-03-23T18:37:41.524Z,2.22
2018-03-23T18:40:09.717Z,1.95
2018-03-23T18:42:38.224Z,2.17
2018-03-23T18:45:06.317Z,2.37
2018-03-23T18:47:34.413Z,1.92
2018-03-23T18:50:02.601Z,3.30
2018-03-23T18:52:30.792Z,3.35
2018-03-23T18:54:58.988Z,5.72
2018-03-23T18:57:27.183Z,4.47
2018-03-23T18:59:55.371Z,5.20
2018-03-23T19:02:23.660Z,6.12
2018-03-23T19:04:51.856Z,5.60
2018-03-23T19:07:20.061Z,5.00
2018-03-23T19:09:48.460Z,5.65
2018-03-23T19:12:16.656Z,6.28
2018-03-23T19:14:44.734Z,5.18
2018-03-23T19:17:12.980Z,5.25
2018-03-23T19:19:41.656Z,4.20
2018-03-23T19:22:09.845Z,3.85
2018-03-23T19:24:38.128Z,5.40
2018-03-23T19:27:06.344Z,3.53
2018-03-23T19:29:34.717Z,3.00
2018-03-23T19:32:02.928Z,4.00
2018-03-23T19:34:31.105Z,4.60
2018-03-23T19:36:59.208Z,3.80
2018-03-23T19:39:27.398Z,3.67
2018-03-23T19:41:55.596Z,3.22
2018-03-23T19:44:23.996Z,3.55
2018-03-23T19:46:52.135Z,4.68
2018-03-23T19:49:20.477Z,3.70
2018-03-23T19:51:48.940Z,4.72
2018-03-23T19:54:17.287Z,4.32
2018-03-23T19:56:45.579Z,4.93
2018-03-23T19:59:13.747Z,5.15
2018-03-23T20:01:42.125Z,5.55
2018-03-23T20:04:10.265Z,5.85
2018-03-23T20:06:38.365Z,5.82
2018-03-23T20:09:06.656Z,5.18
2018-03-23T20:11:34.778Z,4.50
2018-03-23T20:14:02.877Z,3.67
2018-03-23T20:16:31.146Z,3.70
2018-03-23T20:18:59.427Z,4.00
2018-03-23T20:21:27.524Z,4.60
2018-03-23T20:23:55.935Z,4.75
2018-03-23T20:26:24.034Z,5.25
2018-03-23T20:28:52.205Z,4.90
2018-03-23T20:31:20.405Z,5.35
2018-03-23T20:33:48.707Z,4.75
2018-03-23T20:36:16.786Z,5.28
2018-03-23T20:38:44.986Z,5.75
2018-03-23T20:41:13.089Z,4.68
2018-03-23T20:43:41.166Z,5.50
2018-03-23T20:46:09.274Z,6.35
2018-03-23T20:48:37.569Z,6.47
2018-03-23T20:51:05.644Z,5.90
2018-03-23T20:53:33.883Z,6.80
2018-03-23T20:56:02.045Z,5.80
2018-03-23T20:58:30.250Z,7.10
2018-03-23T21:00:58.428Z,6.55
2018-03-23T21:03:26.627Z,6.57
2018-03-23T21:05:54.824Z,6.55
2018-03-23T21:08:23.004Z,6.50
2018-03-23T21:10:51.204Z,6.80
2018-03-23T21:13:19.303Z,8.43
2018-03-23T21:15:47.499Z,7.37
2018-03-23T21:18:15.639Z,7.70
2018-03-23T21:20:43.980Z,6.53
2018-03-23T21:23:12.178Z,5.68
2018-03-23T21:25:40.318Z,5.93
2018-03-23T21:28:08.258Z,5.75
2018-03-23T21:30:36.572Z,5.80
2018-03-23T21:33:04.651Z,4.80
2018-03-23T21:35:32.947Z,5.60
2018-03-23T21:38:01.152Z,6.05
2018-03-23T21:40:29.387Z,5.95
2018-03-23T21:42:57.635Z,5.00
2018-03-23T21:45:25.938Z,5.30
2018-03-23T21:47:54.183Z,7.50
2018-03-23T21:50:22.638Z,6.20
2018-03-23T21:52:50.910Z,6.57
2018-03-23T21:55:19.325Z,4.80
2018-03-23T21:57:47.514Z,5.60
2018-03-23T22:00:15.720Z,6.55
2018-03-23T22:02:44.116Z,6.03
2018-03-23T22:05:12.295Z,5.40
2018-03-23T22:07:40.360Z,5.32
2018-03-23T22:10:08.807Z,6.22
2018-03-23T22:12:36.906Z,5.30
2018-03-23T22:15:05.784Z,6.03
2018-03-23T22:17:33.883Z,4.87
2018-03-23T22:20:02.282Z,5.00
2018-03-23T22:22:30.379Z,5.43
2018-03-23T22:24:58.596Z,4.95
2018-03-23T22:27:26.767Z,5.30
2018-03-23T22:29:55.177Z,5.07
2018-03-23T22:32:23.463Z,5.32
2018-03-23T22:34:51.657Z,5.70
2018-03-23T22:37:19.858Z,5.32
2018-03-23T22:39:48.138Z,4.85
2018-03-23T22:42:16.335Z,4.40
2018-03-23T22:44:44.539Z,5.00
2018-03-23T22:47:12.738Z,5.55
2018-03-23T22:49:41.221Z,4.85
2018-03-23T22:52:09.535Z,5.37
2018-03-23T22:54:37.821Z,5.35
2018-03-23T22:57:05.981Z,5.30
2018-03-23T22:59:34.259Z,5.07
2018-03-23T23:02:02.703Z,5.75
2018-03-23T23:04:30.896Z,5.57
2018-03-23T23:06:59.302Z,6.10
2018-03-23T23:09:27.508Z,6.07
2018-03-23T23:11:55.743Z,5.15
2018-03-23T23:14:24.089Z,5.37
2018-03-23T23:16:52.289Z,5.57
2018-03-23T23:19:20.481Z,4.40
2018-03-23T23:21:49.301Z,5.00
2018-03-23T23:24:17.588Z,4.60
2018-03-23T23:26:45.719Z,5.15
2018-03-23T23:29:13.881Z,5.47
2018-03-23T23:31:42.162Z,4.55
2018-03-23T23:34:10.285Z,5.00
2018-03-23T23:36:38.561Z,5.72
2018-03-23T23:39:06.968Z,5.68
2018-03-23T23:41:35.362Z,4.57
2018-03-23T23:44:03.459Z,5.47
2018-03-23T23:46:31.809Z,4.25
2018-03-23T23:49:00.257Z,4.70
2018-03-23T23:51:28.584Z,4.05
2018-03-23T23:53:56.838Z,4.32
2018-03-23T23:56:25.145Z,4.47
2018-03-23T23:58:53.919Z,5.25
